Time;durP1;ratioP1;P1;durP2;ratioP2;P2;SDS_P1;SDS_P2;PMS_P1;PMS_P2;Temp;Humidity;BMP_temperature;BMP_pressure;BME280_temperature;BME280_humidity;BME280_pressure;Samples;Min_cycle;Max_cycle;Signal;HPM_P1;HPM_P2
2022/01/22 00:02:03;;;;;;;12.65;4.43;;;;;;;22.42;15.56;98118.09;5055389;28;20060;-80
2022/01/22 00:04:30;;;;;;;12.40;4.88;;;;;;;22.56;15.40;98120.69;5053895;28;20033;-80
2022/01/22 00:06:58;;;;;;;11.02;3.38;;;;;;;22.55;15.27;98119.06;5064458;28;20112;-80
2022/01/22 00:09:27;;;;;;;13.27;4.03;;;;;;;22.65;15.34;98112.56;5074579;28;20025;-80
2022/01/22 00:11:54;;;;;;;17.48;5.93;;;;;;;22.74;15.08;98100.81;5075148;28;20040;-80
2022/01/22 00:14:24;;;;;;;11.85;5.20;;;;;;;22.81;15.05;98105.50;5075245;28;20021;-79
2022/01/22 00:16:58;;;;;;;16.30;6.55;;;;;;;22.78;15.05;98109.19;5057178;28;20061;-80
2022/01/22 00:19:25;;;;;;;15.75;4.68;;;;;;;22.67;15.23;98101.75;5054397;28;20052;-80
2022/01/22 00:21:53;;;;;;;12.13;3.90;;;;;;;21.86;15.60;98097.28;5054465;28;20033;-80
2022/01/22 00:24:20;;;;;;;9.93;3.65;;;;;;;21.36;16.20;98113.00;5055195;28;20032;-80
2022/01/22 00:26:47;;;;;;;10.80;3.20;;;;;;;20.83;16.87;98116.25;5055091;28;20582;-80
2022/01/22 00:29:14;;;;;;;7.35;2.85;;;;;;;20.91;16.56;98119.78;5055118;28;20079;-80
2022/01/22 00:31:41;;;;;;;9.40;4.70;;;;;;;18.70;18.60;98123.00;5054670;28;20435;-80
2022/01/22 00:34:08;;;;;;;11.45;4.07;;;;;;;17.44;20.31;98128.94;5054791;28;20071;-80
2022/01/22 00:36:34;;;;;;;7.97;3.10;;;;;;;17.38;20.19;98120.19;5054604;28;20029;-80
2022/01/22 00:39:01;;;;;;;4.03;2.00;;;;;;;15.39;22.39;98118.63;5057604;28;20028;-80
2022/01/22 00:41:27;;;;;;;4.90;1.60;;;;;;;13.08;25.66;98125.88;5066108;28;20484;-80
2022/01/22 00:43:53;;;;;;;4.25;1.65;;;;;;;12.48;26.61;98132.66;5066979;28;20098;-80
2022/01/22 00:46:20;;;;;;;4.65;1.80;;;;;;;10.77;29.43;98132.06;5054403;28;20029;-80
2022/01/22 00:48:46;;;;;;;3.85;1.40;;;;;;;11.54;28.87;98126.19;5054020;28;20045;-80
2022/01/22 00:51:12;;;;;;;4.00;1.42;;;;;;;12.45;27.18;98127.88;5054290;28;20029;-80
2022/01/22 00:53:39;;;;;;;3.50;1.13;;;;;;;13.88;24.99;98130.72;5053841;28;20556;-80
2022/01/22 00:56:05;;;;;;;2.53;1.00;;;;;;;11.15;27.85;98135.22;5054166;28;20048;-80
2022/01/22 00:58:31;;;;;;;1.50;0.65;;;;;;;9.24;31.28;98132.59;5068699;28;20024;-80
2022/01/22 01:00:57;;;;;;;2.63;0.70;;;;;;;7.46;34.22;98137.34;5073171;28;20028;-80
2022/01/22 01:03:23;;;;;;;1.00;0.63;;;;;;;7.55;34.97;98142.81;5074249;28;20503;-80
2022/01/22 01:05:49;;;;;;;1.60;0.77;;;;;;;7.95;33.97;98146.09;5073924;28;20028;-80
2022/01/22 01:08:15;;;;;;;1.30;0.68;;;;;;;9.30;31.35;98123.03;5073646;28;20079;-80
2022/01/22 01:10:41;;;;;;;1.60;0.73;;;;;;;10.96;28.97;98118.53;5073891;28;20037;-80
2022/01/22 01:13:08;;;;;;;1.45;0.50;;;;;;;9.79;30.77;98124.03;5067689;28;20048;-80
2022/01/22 01:32:17;;;;;;;2.20;0.60;;;;;;;16.88;19.94;98096.06;5062776;28;20033;-80
2022/01/22 01:34:44;;;;;;;2.17;0.80;;;;;;;15.49;20.79;98101.41;5063868;28;20053;-80
2022/01/22 01:37:14;;;;;;;0.70;0.40;;;;;;;15.29;21.08;98096.34;5053492;28;20025;-80
2022/01/22 01:39:42;;;;;;;1.95;0.80;;;;;;;13.69;23.21;98100.38;5053634;28;20040;-80
2022/01/22 01:42:12;;;;;;;0.65;0.50;;;;;;;14.54;22.23;98089.72;5053398;28;20408;-80
2022/01/22 01:44:40;;;;;;;0.52;0.40;;;;;;;14.90;21.46;98087.50;5053420;28;20028;-80
2022/01/22 01:47:08;;;;;;;0.63;0.45;;;;;;;14.74;21.93;98095.97;5053556;28;20025;-80
2022/01/22 01:49:35;;;;;;;1.30;0.55;;;;;;;13.73;22.83;98096.50;5053716;28;20029;-80
2022/01/22 01:52:04;;;;;;;1.85;0.40;;;;;;;15.26;21.18;98091.59;5053838;28;20061;-80
2022/01/22 01:59:44;;;;;;;1.98;0.55;;;;;;;14.65;21.49;98083.56;5053319;28;20090;-80
2022/01/22 02:02:11;;;;;;;0.68;0.50;;;;;;;15.75;21.00;98079.16;5053102;28;20029;-80
2022/01/22 02:04:37;;;;;;;0.50;0.40;;;;;;;16.02;20.40;98070.75;5053070;28;20536;-80
2022/01/22 02:07:05;;;;;;;0.90;0.40;;;;;;;17.72;18.63;98065.22;5071640;28;20039;-80
2022/01/22 02:09:33;;;;;;;1.48;0.50;;;;;;;17.68;18.44;98076.34;5072567;28;20101;-80
2022/01/22 02:12:12;;;;;;;1.83;0.47;;;;;;;17.59;18.52;98069.56;5073167;28;20461;-80
2022/01/22 02:25:23;;;;;;;2.55;0.57;;;;;;;19.75;16.25;98065.53;5065240;28;20502;-80
2022/01/22 02:27:49;;;;;;;1.77;0.47;;;;;;;18.98;16.87;98064.56;5057036;28;20029;-80
2022/01/22 02:30:21;;;;;;;0.80;0.80;;;;;;;18.89;17.02;98066.19;5052793;28;20057;-80
2022/01/22 02:33:18;;;;;;;1.25;0.50;;;;;;;18.85;16.87;98071.75;5052868;28;20535;-80
2022/01/22 02:35:51;;;;;;;0.73;0.30;;;;;;;19.32;16.54;98071.25;5052675;28;20025;-80
2022/01/22 02:38:44;;;;;;;1.95;0.40;;;;;;;19.62;16.31;98078.34;5052821;28;20400;-80
2022/01/22 02:41:12;;;;;;;1.75;0.47;;;;;;;19.99;15.82;98076.59;5064519;28;20047;-80
2022/01/22 02:43:38;;;;;;;0.38;0.25;;;;;;;20.35;15.57;98087.53;5060349;28;20036;-80
2022/01/22 02:46:04;;;;;;;0.77;0.40;;;;;;;20.44;15.12;98087.88;5055420;28;20484;-80
2022/01/22 02:48:31;;;;;;;0.77;0.30;;;;;;;20.61;15.35;98092.50;5056483;28;20500;-80
2022/01/22 02:50:57;;;;;;;1.42;0.50;;;;;;;20.84;15.10;98080.78;5056198;28;20032;-80
2022/01/22 02:53:23;;;;;;;0.38;0.30;;;;;;;20.99;15.01;98082.22;5056713;28;20457;-80
2022/01/22 02:55:50;;;;;;;0.57;0.40;;;;;;;21.23;14.93;98090.41;5057259;28;20105;-80
2022/01/22 02:58:16;;;;;;;2.45;0.63;;;;;;;21.46;14.68;98088.94;5056450;28;20481;-80
2022/01/22 03:00:43;;;;;;;2.03;0.55;;;;;;;21.58;14.46;98078.03;5056862;28;20032;-80
2022/01/22 03:03:09;;;;;;;3.67;0.70;;;;;;;21.64;14.54;98078.34;5056305;28;20039;-80
2022/01/22 03:05:35;;;;;;;2.25;0.52;;;;;;;21.75;14.27;98079.03;5056058;28;20028;-80
2022/01/22 03:08:06;;;;;;;4.15;1.15;;;;;;;21.79;14.36;98075.00;5057408;28;20350;-80
2022/01/22 03:10:32;;;;;;;11.27;2.40;;;;;;;21.82;14.41;98068.53;5056501;28;20036;-80
2022/01/22 03:18:12;;;;;;;0.57;0.57;;;;;;;20.71;15.29;98074.09;5072384;28;20057;-80
2022/01/22 03:21:05;;;;;;;2.38;0.50;;;;;;;20.36;15.45;98080.75;5073125;28;20087;-80
2022/01/22 03:29:04;;;;;;;0.82;0.60;;;;;;;20.42;15.58;98084.72;5056011;28;20052;-80
2022/01/22 03:31:31;;;;;;;1.88;0.80;;;;;;;20.42;15.53;98087.50;5056586;28;20108;-80
2022/01/22 03:33:57;;;;;;;1.70;0.65;;;;;;;20.00;15.69;98082.94;5056435;28;20041;-80
2022/01/22 03:36:28;;;;;;;0.65;0.50;;;;;;;19.73;15.90;98085.47;5055676;28;20032;-80
2022/01/22 03:38:55;;;;;;;;;;;;;;;19.49;16.22;98086.34;5056262;28;20037;-80
2022/01/22 03:41:23;;;;;;;1.38;0.70;;;;;;;19.67;16.10;98087.09;5055299;28;20007;-79
2022/01/22 03:43:51;;;;;;;1.58;0.60;;;;;;;19.88;16.01;98081.41;5055754;28;20033;-80
2022/01/22 03:46:18;;;;;;;1.08;0.57;;;;;;;20.33;15.62;98085.16;5055522;28;20486;-80
2022/01/22 03:48:44;;;;;;;5.88;1.40;;;;;;;20.77;15.21;98084.41;5055682;28;20037;-80
2022/01/22 03:51:11;;;;;;;10.45;1.70;;;;;;;20.95;15.07;98085.06;5055867;28;20033;-80
2022/01/22 03:53:37;;;;;;;21.25;3.22;;;;;;;21.00;15.23;98089.41;5055245;28;20029;-80
2022/01/22 03:56:05;;;;;;;8.23;1.15;;;;;;;21.05;14.97;98086.97;5054455;28;20099;-80
2022/01/22 03:58:36;;;;;;;3.05;0.98;;;;;;;21.14;14.93;98087.28;5055273;28;20036;-80
2022/01/22 04:01:31;;;;;;;4.00;0.77;;;;;;;21.30;14.84;98089.53;5055319;28;20055;-80
2022/01/22 04:04:01;;;;;;;1.45;0.65;;;;;;;21.32;14.82;98096.28;5054999;28;20048;-80
2022/01/22 04:09:04;;;;;;;5.18;0.82;;;;;;;21.32;14.78;98096.28;5074629;28;20127;-80
2022/01/22 04:11:32;;;;;;;1.65;0.80;;;;;;;21.30;14.88;98095.13;5075338;28;20502;-80
2022/01/22 04:14:02;;;;;;;6.05;1.45;;;;;;;21.21;14.54;98101.16;5069023;28;20024;-80
2022/01/22 04:16:29;;;;;;;12.43;4.10;;;;;;;21.21;14.64;98094.81;5068831;28;20025;-80
2022/01/22 04:27:13;;;;;;;5.13;2.17;;;;;;;20.44;14.63;98097.00;5055598;28;20491;-80
2022/01/22 04:29:41;;;;;;;6.20;1.33;;;;;;;20.10;15.06;98087.66;5054601;28;20095;-80
2022/01/22 04:32:07;;;;;;;3.13;1.40;;;;;;;20.02;15.25;98096.47;5054654;28;20377;-79
2022/01/22 04:34:34;;;;;;;4.40;1.40;;;;;;;19.97;14.93;98103.25;5054586;28;20024;-80
2022/01/22 04:37:00;;;;;;;4.55;1.92;;;;;;;19.73;15.17;98106.94;5054879;28;20033;-80
2022/01/22 04:39:27;;;;;;;7.13;2.15;;;;;;;19.54;15.50;98111.00;5068002;28;20036;-79
2022/01/22 04:41:55;;;;;;;5.80;2.13;;;;;;;19.28;15.92;98117.00;5067045;28;20040;-80
2022/01/22 04:44:25;;;;;;;4.60;2.08;;;;;;;19.03;16.08;98119.03;5054673;28;20541;-80
2022/01/22 04:55:13;;;;;;;6.45;3.13;;;;;;;18.87;16.35;98132.56;5058628;28;20121;-80
2022/01/22 04:57:46;;;;;;;5.78;2.47;;;;;;;18.90;16.03;98129.78;5054226;28;20059;-80
2022/01/22 05:00:14;;;;;;;4.80;2.42;;;;;;;18.87;16.10;98143.69;5054469;28;20021;-80
2022/01/22 05:02:40;;;;;;;5.40;2.30;;;;;;;18.75;15.66;98141.28;5054028;28;20033;-79
2022/01/22 05:05:09;;;;;;;3.92;2.28;;;;;;;18.71;16.18;98135.75;5053945;28;20051;-80
2022/01/22 05:07:35;;;;;;;6.05;2.58;;;;;;;18.39;16.40;98144.00;5053974;28;20465;-80
2022/01/22 05:10:02;;;;;;;7.82;2.75;;;;;;;17.95;16.88;98149.03;5057057;28;20029;-79
2022/01/22 05:12:28;;;;;;;5.47;2.90;;;;;;;17.64;17.25;98161.56;5054428;28;20060;-80
2022/01/22 05:14:54;;;;;;;5.50;2.25;;;;;;;17.53;17.31;98182.94;5054004;28;20446;-80
2022/01/22 05:17:21;;;;;;;6.28;2.45;;;;;;;17.83;17.43;98186.28;5054345;28;20029;-79
2022/01/22 05:20:13;;;;;;;8.50;2.70;;;;;;;18.09;17.53;98192.72;5053691;28;20057;-79
2022/01/22 05:22:51;;;;;;;5.47;2.47;;;;;;;18.21;17.49;98193.19;5053381;28;20040;-79
2022/01/22 05:25:22;;;;;;;6.50;2.70;;;;;;;18.56;17.22;98190.53;5065663;28;20557;-79
2022/01/22 05:31:00;;;;;;;5.20;2.80;;;;;;;18.63;17.13;98201.66;5069095;28;20141;-80
2022/01/22 05:36:55;;;;;;;6.95;2.63;;;;;;;17.32;18.59;98210.53;5072751;28;20028;-80
2022/01/22 05:39:05;;;;;;;6.57;2.58;;;;;;;16.47;19.63;98209.75;5074153;28;20043;-80
2022/01/22 05:41:31;;;;;;;4.82;2.20;;;;;;;15.67;20.22;98204.00;5073155;28;20020;-80
2022/01/22 05:43:58;;;;;;;7.38;3.17;;;;;;;16.47;19.46;98198.66;5071817;28;20040;-80
2022/01/22 05:46:24;;;;;;;5.10;2.65;;;;;;;16.82;18.82;98200.22;5068237;28;20026;-80
2022/01/22 05:48:50;;;;;;;4.88;2.58;;;;;;;17.46;18.12;98199.53;5053434;28;20064;-80
2022/01/22 05:51:17;;;;;;;3.97;2.20;;;;;;;17.55;17.91;98202.78;5053826;28;20076;-80
2022/01/22 06:01:23;;;;;;;5.00;2.63;;;;;;;19.08;16.18;98233.53;5053443;28;20055;-80
2022/01/22 06:03:49;;;;;;;4.95;2.42;;;;;;;19.27;16.25;98235.91;5052051;28;20526;-80
2022/01/22 06:06:15;;;;;;;19.98;5.38;;;;;;;19.31;16.08;98242.28;5066673;28;20033;-80
2022/01/22 06:08:48;;;;;;;36.83;7.82;;;;;;;19.79;15.72;98241.84;5073450;28;20472;-80
2022/01/22 06:11:21;;;;;;;29.13;7.25;;;;;;;20.14;15.27;98243.75;5072030;28;20032;-80
2022/01/22 06:13:48;;;;;;;17.30;4.47;;;;;;;20.31;15.06;98240.09;5072897;28;20033;-80
2022/01/22 06:16:16;;;;;;;10.57;4.28;;;;;;;20.11;15.33;98250.13;5073010;28;20021;-80
2022/01/22 06:18:43;;;;;;;9.20;4.30;;;;;;;19.67;15.37;98248.66;5074052;28;20147;-80
2022/01/22 06:21:10;;;;;;;7.95;3.30;;;;;;;19.71;15.39;98248.63;5063974;28;20120;-79
2022/01/22 06:23:37;;;;;;;8.15;4.10;;;;;;;19.83;15.39;98253.78;5057545;28;20037;-80
2022/01/22 06:26:04;;;;;;;7.03;3.42;;;;;;;19.76;15.17;98262.16;5057064;28;20036;-80
2022/01/22 06:28:31;;;;;;;5.68;3.25;;;;;;;19.31;15.61;98267.31;5056732;28;20056;-80
2022/01/22 06:30:59;;;;;;;6.18;2.63;;;;;;;18.74;16.06;98276.75;5056957;28;20036;-80
2022/01/22 06:33:26;;;;;;;7.63;2.42;;;;;;;17.92;16.83;98278.38;5056933;28;20116;-80
2022/01/22 06:35:52;;;;;;;15.15;5.13;;;;;;;18.03;16.98;98277.66;5057119;28;20094;-80
2022/01/22 06:38:19;;;;;;;8.52;2.20;;;;;;;17.60;17.24;98282.94;5069337;28;20040;-80
2022/01/22 06:43:31;;;;;;;49.80;17.92;;;;;;;18.32;16.65;98266.28;5056628;28;20408;-80
2022/01/22 06:45:58;;;;;;;43.15;16.92;;;;;;;18.80;16.13;98261.31;5056685;28;20481;-80
2022/01/22 06:48:24;;;;;;;13.57;6.32;;;;;;;19.04;15.81;98270.88;5056487;28;20392;-80
2022/01/22 06:50:51;;;;;;;10.38;4.32;;;;;;;18.79;15.89;98272.81;5057654;28;20357;-79
2022/01/22 06:53:17;;;;;;;10.82;4.78;;;;;;;18.71;16.02;98279.56;5056383;28;20064;-80
2022/01/22 06:55:54;;;;;;;8.52;3.83;;;;;;;18.57;16.02;98283.91;5072288;28;20028;-79
2022/01/22 06:58:20;;;;;;;9.18;4.53;;;;;;;18.24;16.54;98297.22;5064926;28;20036;-79
2022/01/22 07:00:46;;;;;;;8.75;3.50;;;;;;;17.76;17.04;98291.00;5056534;28;20036;-79
2022/01/22 07:03:12;;;;;;;13.70;5.43;;;;;;;17.81;17.05;98296.97;5056274;28;20481;-79
2022/01/22 07:05:38;;;;;;;8.93;3.92;;;;;;;17.67;17.34;98294.09;5059781;28;20490;-79
2022/01/22 07:08:04;;;;;;;6.43;3.33;;;;;;;16.86;17.98;98290.56;5076244;28;20119;-79
2022/01/22 07:10:31;;;;;;;9.95;3.35;;;;;;;16.98;18.39;98287.53;5057078;28;20051;-79
2022/01/22 07:12:57;;;;;;;11.40;3.85;;;;;;;17.23;18.34;98291.31;5056930;28;20032;-79
2022/01/22 07:15:23;;;;;;;10.48;4.07;;;;;;;16.70;18.92;98291.97;5060293;28;20138;-78
2022/01/22 07:17:49;;;;;;;8.38;4.10;;;;;;;16.96;18.84;98298.22;5071870;28;20035;-79
2022/01/22 07:20:24;;;;;;;11.07;4.60;;;;;;;17.04;18.73;98297.09;5069361;28;20099;-79
2022/01/22 07:22:53;;;;;;;5.55;3.60;;;;;;;17.10;18.76;98303.91;5055889;28;20040;-79
2022/01/22 07:25:19;;;;;;;6.28;3.35;;;;;;;16.72;19.20;98309.81;5055710;28;20389;-79
2022/01/22 07:27:46;;;;;;;8.93;3.65;;;;;;;17.02;19.01;98301.41;5056151;28;20039;-79
2022/01/22 07:30:13;;;;;;;6.05;3.55;;;;;;;16.76;19.24;98305.09;5056029;28;20074;-80
2022/01/22 07:32:43;;;;;;;8.68;3.40;;;;;;;16.22;20.11;98311.16;5056608;28;20037;-79
2022/01/22 07:35:15;;;;;;;8.48;3.63;;;;;;;14.81;21.61;98314.41;5055978;28;20458;-79
2022/01/22 07:37:41;;;;;;;11.32;3.65;;;;;;;15.27;21.52;98317.19;5055966;28;20029;-79
2022/01/22 07:40:09;;;;;;;7.65;3.00;;;;;;;15.71;20.71;98312.78;5055108;28;20020;-79
2022/01/22 07:42:37;;;;;;;8.65;3.55;;;;;;;16.33;20.25;98320.44;5055475;28;20036;-80
2022/01/22 07:45:04;;;;;;;5.65;3.10;;;;;;;16.98;19.63;98325.56;5056466;28;20111;-80
2022/01/22 07:47:31;;;;;;;7.40;3.28;;;;;;;17.34;19.29;98323.94;5054238;28;20068;-79
2022/01/22 07:49:57;;;;;;;9.70;3.65;;;;;;;17.59;19.06;98324.97;5055972;28;20037;-79
2022/01/22 07:52:24;;;;;;;6.05;3.28;;;;;;;16.97;19.34;98324.75;5056421;28;20029;-80
2022/01/22 07:54:50;;;;;;;7.32;3.30;;;;;;;16.92;19.62;98325.09;5055151;28;20025;-80
2022/01/22 07:57:17;;;;;;;6.80;3.10;;;;;;;16.94;19.70;98330.28;5055671;28;20029;-79
2022/01/22 07:59:43;;;;;;;8.55;3.33;;;;;;;17.21;19.46;98346.41;5055306;28;20056;-80
2022/01/22 08:02:09;;;;;;;5.53;3.00;;;;;;;16.16;20.44;98348.69;5055825;28;20032;-80
2022/01/22 08:04:35;;;;;;;7.00;3.45;;;;;;;15.87;21.14;98352.19;5055076;28;20116;-80
2022/01/22 08:07:05;;;;;;;7.53;3.22;;;;;;;16.28;20.79;98356.75;5057069;28;20481;-80
2022/01/22 08:09:31;;;;;;;9.15;3.80;;;;;;;17.06;19.98;98346.66;5074773;28;20082;-80
2022/01/22 08:11:59;;;;;;;9.10;3.33;;;;;;;17.08;19.98;98358.16;5075079;28;20033;-80
2022/01/22 08:14:25;;;;;;;7.05;3.30;;;;;;;17.02;19.96;98363.25;5075307;28;20035;-79
2022/01/22 08:16:51;;;;;;;7.88;3.72;;;;;;;15.55;21.36;98364.72;5075126;28;20033;-79
2022/01/22 08:19:18;;;;;;;6.65;3.95;;;;;;;15.04;22.44;98367.75;5070421;28;20500;-80
2022/01/22 08:21:46;;;;;;;7.05;4.15;;;;;;;14.70;22.62;98370.63;5055117;28;20391;-79
2022/01/22 08:24:13;;;;;;;8.82;3.63;;;;;;;15.15;22.45;98381.78;5055063;28;20503;-80
2022/01/22 08:26:45;;;;;;;8.95;4.40;;;;;;;15.34;22.31;98384.50;5067134;28;20395;-80
2022/01/22 08:29:11;;;;;;;4.97;2.90;;;;;;;15.22;22.29;98390.19;5054978;28;20083;-80
2022/01/22 08:36:55;;;;;;;8.98;4.78;;;;;;;15.60;21.82;98406.72;5063955;28;20127;-80
2022/01/22 08:39:21;;;;;;;12.43;3.90;;;;;;;14.92;22.56;98414.09;5071090;28;20087;-80
2022/01/22 08:41:47;;;;;;;6.97;3.30;;;;;;;14.06;23.61;98420.88;5070477;28;20028;-80
2022/01/22 08:44:13;;;;;;;12.52;5.00;;;;;;;14.43;23.62;98419.41;5073107;28;20040;-80
2022/01/22 08:46:40;;;;;;;8.93;4.60;;;;;;;15.43;22.43;98423.78;5069235;28;20116;-80
2022/01/22 08:49:07;;;;;;;9.25;4.03;;;;;;;16.47;21.27;98420.38;5074389;28;20070;-80
2022/01/22 08:51:37;;;;;;;6.53;3.58;;;;;;;16.80;20.57;98419.66;5073059;28;20035;-80
2022/01/22 08:54:03;;;;;;;7.03;3.80;;;;;;;16.10;21.07;98440.78;5071707;28;20046;-80
2022/01/22 08:56:30;;;;;;;9.07;4.75;;;;;;;15.84;21.61;98442.34;5073729;28;20328;-80
2022/01/22 08:58:56;;;;;;;7.20;4.00;;;;;;;16.92;20.53;98438.03;5074106;28;20035;-80
2022/01/22 09:01:23;;;;;;;12.98;4.40;;;;;;;16.46;20.54;98435.38;5072812;28;20032;-80
2022/01/22 09:03:50;;;;;;;7.07;4.05;;;;;;;16.26;21.28;98430.34;5074173;28;20043;-80
2022/01/22 09:06:17;;;;;;;11.43;4.82;;;;;;;15.47;21.81;98423.91;5067467;28;20373;-80
2022/01/22 09:08:50;;;;;;;9.40;5.28;;;;;;;15.14;22.45;98433.53;5066318;28;20056;-80
2022/01/22 09:11:17;;;;;;;9.20;4.53;;;;;;;14.40;23.15;98426.44;5073261;28;20037;-80
2022/01/22 09:13:44;;;;;;;11.80;5.25;;;;;;;14.43;23.34;98436.78;5071603;28;20032;-80
2022/01/22 09:16:10;;;;;;;14.65;6.68;;;;;;;13.21;24.86;98431.75;5074009;28;20373;-80
2022/01/22 09:18:36;;;;;;;10.27;4.50;;;;;;;14.24;24.02;98441.41;5073469;28;20029;-80
2022/01/22 09:21:04;;;;;;;11.05;5.65;;;;;;;15.52;22.03;98424.38;5053035;28;20037;-80
2022/01/22 09:23:32;;;;;;;15.48;7.53;;;;;;;15.52;21.65;98412.53;5053870;28;20029;-80
2022/01/22 09:25:59;;;;;;;17.27;6.85;;;;;;;15.73;21.62;98410.09;5053647;28;20419;-80
2022/01/22 09:28:26;;;;;;;12.30;5.38;;;;;;;15.77;21.42;98428.38;5054021;28;20036;-80
2022/01/22 09:30:53;;;;;;;11.02;5.00;;;;;;;15.97;21.40;98422.75;5054476;28;20435;-80
2022/01/22 09:33:20;;;;;;;11.13;5.63;;;;;;;15.85;21.46;98432.84;5053555;28;20037;-80
2022/01/22 09:35:46;;;;;;;11.85;6.25;;;;;;;15.09;22.42;98428.31;5053560;28;20033;-80
2022/01/22 09:38:12;;;;;;;12.90;5.88;;;;;;;15.13;22.26;98440.22;5053473;28;20544;-80
2022/01/22 09:40:39;;;;;;;11.50;5.57;;;;;;;13.88;23.86;98454.38;5060407;28;20078;-80
2022/01/22 09:43:05;;;;;;;12.20;6.10;;;;;;;14.80;22.92;98447.41;5073554;28;20438;-80
2022/01/22 09:45:32;;;;;;;12.63;6.13;;;;;;;14.18;23.42;98446.44;5072538;28;20475;-80
2022/01/22 09:47:59;;;;;;;14.30;6.80;;;;;;;14.01;23.29;98451.50;5072498;28;20107;-80
2022/01/22 09:50:28;;;;;;;16.50;7.25;;;;;;;14.20;23.25;98446.88;5072018;28;20114;-80
2022/01/22 09:52:54;;;;;;;13.95;6.75;;;;;;;15.26;22.05;98440.88;5072152;28;20032;-80
2022/01/22 09:55:21;;;;;;;10.38;5.30;;;;;;;16.39;20.85;98435.28;5073448;28;20170;-80
2022/01/22 09:57:48;;;;;;;10.55;5.70;;;;;;;16.17;21.00;98447.25;5073334;28;20035;-80
2022/01/22 10:00:18;;;;;;;12.90;6.32;;;;;;;16.28;20.85;98452.94;5073170;28;20047;-80
2022/01/22 10:02:54;;;;;;;12.10;6.10;;;;;;;16.24;20.99;98457.63;5070731;28;20036;-80
2022/01/22 10:05:34;;;;;;;15.05;6.60;;;;;;;15.32;21.62;98464.28;5062268;28;20017;-80
2022/01/22 10:08:31;;;;;;;16.92;8.07;;;;;;;15.47;21.92;98465.41;5053337;28;20025;-80
2022/01/22 10:11:01;;;;;;;13.60;6.95;;;;;;;15.57;21.53;98468.34;5053346;28;20438;-80
2022/01/22 10:13:45;;;;;;;14.57;7.05;;;;;;;15.16;22.08;98480.19;5053449;28;20090;-80
2022/01/22 10:16:18;;;;;;;12.15;6.35;;;;;;;14.65;22.66;98485.03;5055596;28;20025;-80
2022/01/22 10:18:45;;;;;;;18.67;7.60;;;;;;;13.99;23.53;98485.00;5064227;28;20076;-80
2022/01/22 10:21:14;;;;;;;20.30;7.28;;;;;;;14.02;24.04;98473.25;5053342;28;20100;-80
2022/01/22 10:23:41;;;;;;;16.52;7.97;;;;;;;14.70;23.12;98483.94;5053196;28;20496;-80
2022/01/22 10:26:13;;;;;;;15.68;7.28;;;;;;;15.34;22.13;98477.75;5053209;28;20174;-80
2022/01/22 10:28:47;;;;;;;18.05;8.13;;;;;;;15.30;22.08;98472.16;5053197;28;20029;-80
2022/01/22 10:31:25;;;;;;;18.50;8.23;;;;;;;14.85;22.56;98474.78;5052922;28;20021;-80
2022/01/22 10:34:04;;;;;;;17.20;8.10;;;;;;;15.35;22.06;98477.41;5053030;28;20162;-80
2022/01/22 10:36:30;;;;;;;17.05;7.20;;;;;;;14.94;22.52;98475.34;5053380;28;20033;-80
2022/01/22 10:38:57;;;;;;;16.00;7.85;;;;;;;14.69;22.65;98483.13;5053333;28;20029;-80
2022/01/22 10:41:42;;;;;;;16.20;7.63;;;;;;;15.78;21.35;98482.56;5072409;28;20028;-80
2022/01/22 10:44:21;;;;;;;16.13;7.30;;;;;;;16.71;20.59;98480.09;5071870;28;20032;-80
2022/01/22 10:47:03;;;;;;;13.35;6.60;;;;;;;15.89;21.43;98482.78;5073046;28;20037;-80
2022/01/22 10:49:30;;;;;;;14.05;6.85;;;;;;;15.71;21.62;98482.44;5072847;28;20033;-80
2022/01/22 10:52:04;;;;;;;19.65;7.07;;;;;;;15.83;21.60;98485.03;5071181;28;20036;-80
2022/01/22 10:54:32;;;;;;;12.68;6.57;;;;;;;15.87;21.59;98477.59;5069311;28;20071;-80
2022/01/22 10:57:24;;;;;;;14.52;7.40;;;;;;;15.08;22.37;98470.13;5056414;28;20044;-80
2022/01/22 10:59:55;;;;;;;12.48;6.95;;;;;;;15.29;22.39;98473.31;5052820;28;20037;-80
2022/01/22 11:02:36;;;;;;;16.83;7.88;;;;;;;15.02;22.90;98483.47;5052523;28;20029;-80
2022/01/22 11:05:03;;;;;;;13.25;6.72;;;;;;;13.88;24.18;98487.47;5073642;28;20032;-80
2022/01/22 11:07:29;;;;;;;12.95;5.85;;;;;;;14.33;23.81;98495.31;5076429;28;20028;-80
2022/01/22 11:09:55;;;;;;;15.85;7.78;;;;;;;14.14;23.70;98519.28;5075400;28;20036;-80
2022/01/22 11:12:22;;;;;;;22.05;8.25;;;;;;;13.59;24.88;98498.97;5075358;28;20036;-81
2022/01/22 11:14:48;;;;;;;14.23;6.65;;;;;;;14.76;23.56;98507.34;5076025;28;20533;-81
2022/01/22 11:17:15;;;;;;;19.42;9.35;;;;;;;15.47;22.25;98504.94;5075874;28;20503;-81
2022/01/22 11:19:45;;;;;;;22.75;10.82;;;;;;;14.09;23.99;98509.31;5075817;28;20186;-80
2022/01/22 11:22:14;;;;;;;17.98;7.88;;;;;;;14.81;23.26;98509.84;5057662;28;20037;-80
2022/01/22 11:24:43;;;;;;;19.73;9.20;;;;;;;14.51;23.61;98512.34;5056203;28;20044;-81
2022/01/22 11:27:12;;;;;;;19.58;8.48;;;;;;;14.91;23.09;98512.81;5062360;28;20031;-80
2022/01/22 11:29:51;;;;;;;15.77;8.40;;;;;;;15.97;21.98;98512.16;5067002;28;20033;-80
2022/01/22 11:32:21;;;;;;;19.67;7.93;;;;;;;16.10;21.49;98512.78;5055684;28;20068;-81
2022/01/22 11:34:50;;;;;;;15.25;7.72;;;;;;;16.17;21.54;98522.03;5055658;28;20090;-81
2022/01/22 11:37:47;;;;;;;14.75;7.38;;;;;;;15.41;22.12;98522.94;5055937;28;20033;-81
2022/01/22 11:40:21;;;;;;;15.82;7.55;;;;;;;15.92;21.95;98523.53;5052452;28;20094;-81
2022/01/22 11:43:10;;;;;;;16.80;7.88;;;;;;;16.46;21.08;98529.59;5055758;28;20052;-81
2022/01/22 11:45:40;;;;;;;12.98;6.72;;;;;;;16.67;20.88;98531.13;5055853;28;20048;-81
2022/01/22 11:48:23;;;;;;;15.02;6.53;;;;;;;15.31;22.17;98539.34;5055702;28;20032;-81
2022/01/22 11:50:52;;;;;;;13.60;6.95;;;;;;;15.95;21.55;98558.00;5055793;28;20481;-81
2022/01/22 11:53:30;;;;;;;15.57;6.95;;;;;;;15.31;22.21;98548.44;5061895;28;20492;-81
2022/01/22 11:56:11;;;;;;;13.68;6.78;;;;;;;15.84;21.53;98555.84;5075998;28;20028;-81
2022/01/22 11:58:55;;;;;;;;;;;;;;;16.12;20.81;98552.00;5075878;28;20115;-81
2022/01/22 12:02:03;;;;;;;14.48;5.85;;;;;;;15.78;21.29;98554.53;5061012;28;19913;-81
2022/01/22 12:04:38;;;;;;;15.00;6.22;;;;;;;16.31;20.71;98554.69;5074562;28;20033;-80
2022/01/22 12:07:04;;;;;;;11.93;5.45;;;;;;;16.32;20.79;98546.00;5075271;28;20515;-81
2022/01/22 12:10:15;;;;;;;13.05;5.20;;;;;;;16.11;21.26;98570.56;5075133;28;20021;-81
2022/01/22 12:15:34;;;;;;;16.23;4.50;;;;;;;15.81;21.54;98573.19;5074523;28;20375;-81
2022/01/22 12:18:10;;;;;;;7.53;4.18;;;;;;;15.35;22.29;98587.25;5064227;28;20452;-81
2022/01/22 12:23:19;;;;;;;8.60;4.07;;;;;;;15.64;21.65;98594.97;5061292;28;20041;-81
2022/01/22 12:25:45;;;;;;;11.25;5.03;;;;;;;14.99;22.79;98600.28;5062948;28;20036;-81
2022/01/22 12:28:13;;;;;;;11.93;4.88;;;;;;;15.34;22.36;98600.28;5074639;28;20024;-81
2022/01/22 12:30:46;;;;;;;11.65;3.72;;;;;;;15.34;22.46;98602.22;5075084;28;20441;-81
2022/01/22 12:33:35;;;;;;;11.25;3.95;;;;;;;15.62;22.13;98600.88;5074972;28;20391;-81
2022/01/22 12:36:06;;;;;;;10.43;4.78;;;;;;;15.28;22.55;98621.09;5055786;28;20041;-81
2022/01/22 12:44:27;;;;;;;9.50;3.63;;;;;;;15.95;21.71;98619.72;5055019;28;20041;-81
2022/01/22 12:46:59;;;;;;;10.23;4.07;;;;;;;15.72;22.00;98616.91;5054661;28;20025;-81
2022/01/22 12:49:28;;;;;;;8.57;4.22;;;;;;;15.46;22.17;98619.53;5054630;28;20048;-81
2022/01/22 12:52:15;;;;;;;9.38;3.47;;;;;;;15.70;22.05;98622.03;5062133;28;20118;-81
2022/01/22 12:54:46;;;;;;;9.98;4.28;;;;;;;15.47;22.17;98626.69;5068412;28;20476;-81
2022/01/22 12:57:15;;;;;;;7.22;3.85;;;;;;;15.38;22.42;98628.81;5054343;28;20032;-80
2022/01/22 12:59:52;;;;;;;8.52;3.70;;;;;;;15.46;22.06;98638.91;5053902;28;20027;-81
2022/01/22 13:02:19;;;;;;;8.30;4.13;;;;;;;15.33;22.30;98647.66;5072837;28;20044;-81
2022/01/22 13:05:01;;;;;;;12.48;4.15;;;;;;;15.35;22.09;98651.69;5073885;28;20036;-81
2022/01/22 13:07:27;;;;;;;11.43;3.40;;;;;;;13.89;23.99;98662.16;5056278;28;20043;-80
2022/01/22 13:09:57;;;;;;;12.32;3.88;;;;;;;13.82;24.29;98656.44;5073419;28;20381;-81
2022/01/22 13:12:25;;;;;;;13.55;4.25;;;;;;;14.64;23.18;98663.03;5073365;28;20025;-81
2022/01/22 13:14:57;;;;;;;7.20;3.78;;;;;;;14.37;23.70;98666.66;5073590;28;20033;-80
2022/01/22 13:17:31;;;;;;;8.95;4.18;;;;;;;14.37;23.79;98670.25;5059736;28;20037;-81
2022/01/22 13:19:59;;;;;;;13.15;4.20;;;;;;;14.77;23.19;98674.78;5067423;28;20102;-81